Time;durP1;ratioP1;P1;durP2;ratioP2;P2;SDS_P1;SDS_P2;PMS_P1;PMS_P2;Temp;Humidity;BMP_temperature;BMP_pressure;BME280_temperature;BME280_humidity;BME280_pressure;Samples;Min_cycle;Max_cycle;Signal;HPM_P1;HPM_P2
2022/11/24 00:01:26;;;;;;;3.10;1.38;;;;;;;;;;4981275;28;20046;-66
2022/11/24 00:04:11;;;;;;;2.40;1.30;;;;;;;;;;4980536;28;20042;-66
2022/11/24 00:06:37;;;;;;;9.10;1.83;;;;;;;;;;4980677;28;20105;-67
2022/11/24 00:09:03;;;;;;;1.45;1.15;;;;;;;;;;4980035;28;20050;-67
2022/11/24 00:11:31;;;;;;;3.30;2.03;;;;;;;;;;4979819;28;20046;-67
2022/11/24 00:13:57;;;;;;;2.13;1.50;;;;;;;;;;4981519;28;20494;-66
2022/11/24 00:16:25;;;;;;;1.38;1.27;;;;;;;;;;4980545;28;20038;-66
2022/11/24 00:18:53;;;;;;;1.50;1.13;;;;;;;;;;4980415;28;20692;-67
2022/11/24 00:21:19;;;;;;;0.90;0.90;;;;;;;;;;4981348;28;20050;-66
2022/11/24 00:23:44;;;;;;;0.98;0.88;;;;;;;;;;4981334;28;20073;-66
2022/11/24 00:26:15;;;;;;;2.92;1.00;;;;;;;;;;4979981;28;20065;-67
2022/11/24 00:28:42;;;;;;;2.40;1.20;;;;;;;;;;4980396;28;20062;-67
2022/11/24 00:31:25;;;;;;;1.33;1.00;;;;;;;;;;4979839;28;20050;-67
2022/11/24 00:33:53;;;;;;;6.25;1.40;;;;;;;;;;4980885;28;20046;-67
2022/11/24 00:36:20;;;;;;;1.17;0.88;;;;;;;;;;4980293;28;20133;-67
2022/11/24 00:38:46;;;;;;;3.67;1.25;;;;;;;;;;4980613;28;20138;-67
2022/11/24 00:41:12;;;;;;;2.35;0.98;;;;;;;;;;4980922;28;20046;-67
2022/11/24 00:43:38;;;;;;;1.70;1.00;;;;;;;;;;4981066;28;20511;-67
2022/11/24 00:46:03;;;;;;;6.35;1.20;;;;;;;;;;4979732;28;20061;-67
2022/11/24 00:48:29;;;;;;;3.60;1.00;;;;;;;;;;4979837;28;20644;-67
2022/11/24 00:51:04;;;;;;;7.05;1.30;;;;;;;;;;4980411;28;20434;-67
2022/11/24 00:53:29;;;;;;;7.10;1.73;;;;;;;;;;4981078;28;21167;-67
2022/11/24 00:55:55;;;;;;;4.63;1.23;;;;;;;;;;4981089;28;20083;-67
2022/11/24 00:58:22;;;;;;;2.50;1.10;;;;;;;;;;4980154;28;20052;-67
2022/11/24 01:00:47;;;;;;;4.93;1.30;;;;;;;;;;4980252;28;20042;-67
2022/11/24 01:03:13;;;;;;;3.65;1.05;;;;;;;;;;4980758;28;20049;-67
2022/11/24 01:05:40;;;;;;;1.60;0.90;;;;;;;;;;4981180;28;20046;-67
2022/11/24 01:08:06;;;;;;;2.92;1.00;;;;;;;;;;4980696;28;20640;-67
2022/11/24 01:10:32;;;;;;;5.80;1.42;;;;;;;;;;4983532;28;20506;-68
2022/11/24 01:12:58;;;;;;;2.65;0.80;;;;;;;;;;4984421;28;20133;-67
2022/11/24 01:15:23;;;;;;;4.78;1.58;;;;;;;;;;4984390;28;20112;-67
2022/11/24 01:17:49;;;;;;;2.38;1.20;;;;;;;;;;4984556;28;20062;-67
2022/11/24 01:20:14;;;;;;;3.42;1.30;;;;;;;;;;4983690;28;20897;-67
2022/11/24 01:22:41;;;;;;;5.45;0.95;;;;;;;;;;4984265;28;20054;-66
2022/11/24 01:25:08;;;;;;;3.08;1.35;;;;;;;;;;4984227;28;20061;-67
2022/11/24 01:27:33;;;;;;;2.67;0.88;;;;;;;;;;4984082;28;20042;-67
2022/11/24 01:29:59;;;;;;;6.03;1.67;;;;;;;;;;4982561;28;20058;-67
2022/11/24 01:32:24;;;;;;;8.68;1.40;;;;;;;;;;4981053;28;20946;-66
2022/11/24 01:34:50;;;;;;;0.88;0.52;;;;;;;;;;4981891;28;20133;-66
2022/11/24 01:37:15;;;;;;;4.82;1.00;;;;;;;;;;4980391;28;20054;-66
2022/11/24 01:39:41;;;;;;;3.38;0.80;;;;;;;;;;4982084;28;20100;-66
2022/11/24 01:42:06;;;;;;;5.25;1.15;;;;;;;;;;4981954;28;20046;-66
2022/11/24 01:44:32;;;;;;;6.88;1.63;;;;;;;;;;4983659;28;20096;-66
2022/11/24 01:47:18;;;;;;;6.75;1.02;;;;;;;;;;4982730;28;20077;-66
2022/11/24 01:49:47;;;;;;;1.15;0.90;;;;;;;;;;4984013;28;20077;-66
2022/11/24 01:52:25;;;;;;;7.57;1.77;;;;;;;;;;4983286;28;20054;-66
2022/11/24 01:54:59;;;;;;;4.88;1.30;;;;;;;;;;4983078;28;20050;-66
2022/11/24 01:57:37;;;;;;;4.45;1.08;;;;;;;;;;4982415;28;20113;-66
2022/11/24 02:00:05;;;;;;;4.05;1.30;;;;;;;;;;4983484;28;20054;-66
2022/11/24 02:02:40;;;;;;;7.60;0.90;;;;;;;;;;4982915;28;20108;-66
2022/11/24 02:05:14;;;;;;;2.92;1.00;;;;;;;;;;4982613;28;20097;-66
2022/11/24 02:07:40;;;;;;;3.35;0.95;;;;;;;;;;4983584;28;20050;-66
2022/11/24 02:10:11;;;;;;;4.53;0.95;;;;;;;;;;4983408;28;21006;-66
2022/11/24 02:12:39;;;;;;;5.55;1.48;;;;;;;;;;4982903;28;20495;-65
2022/11/24 02:15:07;;;;;;;9.07;1.17;;;;;;;;;;4982824;28;20050;-65
2022/11/24 02:17:32;;;;;;;3.45;1.27;;;;;;;;;;4983328;28;20045;-65
2022/11/24 02:20:09;;;;;;;6.10;1.05;;;;;;;;;;4982903;28;20407;-65
2022/11/24 02:22:53;;;;;;;4.20;1.13;;;;;;;;;;4982840;28;20502;-65
2022/11/24 02:25:22;;;;;;;8.90;2.17;;;;;;;;;;4997143;28;20053;-67
2022/11/24 02:27:48;;;;;;;5.32;1.02;;;;;;;;;;4982838;28;20046;-68
2022/11/24 02:30:14;;;;;;;1.00;0.50;;;;;;;;;;4982899;28;20526;-68
2022/11/24 02:32:41;;;;;;;5.45;1.20;;;;;;;;;;4982777;28;20869;-67
2022/11/24 02:35:08;;;;;;;6.63;2.03;;;;;;;;;;4982889;28;20046;-67
2022/11/24 02:37:34;;;;;;;11.98;1.27;;;;;;;;;;4981967;28;21029;-68
2022/11/24 02:39:59;;;;;;;3.55;1.05;;;;;;;;;;4979257;28;20065;-68
2022/11/24 02:42:26;;;;;;;6.53;1.08;;;;;;;;;;4982765;28;20038;-68
2022/11/24 02:44:55;;;;;;;4.25;1.13;;;;;;;;;;4982364;28;20054;-68
2022/11/24 02:47:20;;;;;;;2.22;0.82;;;;;;;;;;4981792;28;20129;-68
2022/11/24 02:49:46;;;;;;;4.30;1.23;;;;;;;;;;4982417;28;20575;-68
2022/11/24 02:52:11;;;;;;;4.55;1.35;;;;;;;;;;4982805;28;20046;-69
2022/11/24 02:54:37;;;;;;;4.05;0.75;;;;;;;;;;4981825;28;20046;-68
2022/11/24 02:57:02;;;;;;;1.45;0.70;;;;;;;;;;4982599;28;20057;-69
2022/11/24 02:59:28;;;;;;;2.83;1.10;;;;;;;;;;4981305;28;20041;-68
2022/11/24 03:01:53;;;;;;;3.00;1.10;;;;;;;;;;4982581;28;20137;-69
2022/11/24 03:04:18;;;;;;;2.58;1.08;;;;;;;;;;4982451;28;21009;-68
2022/11/24 03:06:44;;;;;;;0.85;0.77;;;;;;;;;;4981924;28;20418;-68
2022/11/24 03:09:10;;;;;;;1.88;0.73;;;;;;;;;;4981442;28;20161;-69
2022/11/24 03:11:36;;;;;;;0.47;0.32;;;;;;;;;;4982761;28;20132;-69
2022/11/24 03:14:02;;;;;;;3.13;1.00;;;;;;;;;;4982096;28;20140;-69
2022/11/24 03:16:27;;;;;;;1.95;0.90;;;;;;;;;;4982041;28;20085;-69
2022/11/24 03:18:53;;;;;;;0.50;0.50;;;;;;;;;;4981540;28;20058;-69
2022/11/24 03:21:19;;;;;;;1.17;0.60;;;;;;;;;;4981379;28;20047;-69
2022/11/24 03:23:44;;;;;;;2.33;0.68;;;;;;;;;;4982202;28;20408;-69
2022/11/24 03:26:16;;;;;;;0.80;0.47;;;;;;;;;;4980688;28;20042;-69
2022/11/24 03:28:42;;;;;;;2.95;1.08;;;;;;;;;;4980950;28;20065;-69
2022/11/24 03:31:08;;;;;;;4.18;1.10;;;;;;;;;;4979998;28;20403;-69
2022/11/24 03:33:34;;;;;;;2.05;0.85;;;;;;;;;;4981054;28;20042;-69
2022/11/24 03:36:00;;;;;;;1.50;0.50;;;;;;;;;;4981440;28;20821;-69
2022/11/24 03:38:25;;;;;;;3.97;0.90;;;;;;;;;;4981001;28;20046;-69
2022/11/24 03:40:51;;;;;;;3.35;0.63;;;;;;;;;;4980367;28;20069;-69
2022/11/24 03:43:16;;;;;;;1.25;0.65;;;;;;;;;;4978875;28;20081;-69
2022/11/24 03:45:46;;;;;;;4.20;0.55;;;;;;;;;;4981063;28;20052;-69
2022/11/24 03:48:12;;;;;;;3.60;1.02;;;;;;;;;;4981498;28;20134;-70
2022/11/24 03:50:37;;;;;;;2.97;0.80;;;;;;;;;;4980931;28;20129;-70
2022/11/24 03:53:02;;;;;;;0.55;0.50;;;;;;;;;;4981613;28;20874;-70
2022/11/24 03:55:28;;;;;;;0.47;0.40;;;;;;;;;;4980480;28;20498;-70
2022/11/24 03:57:53;;;;;;;1.25;0.60;;;;;;;;;;4981327;28;20050;-69
2022/11/24 04:00:19;;;;;;;1.85;0.70;;;;;;;;;;4981465;28;20088;-70
2022/11/24 04:02:44;;;;;;;3.28;0.73;;;;;;;;;;4980694;28;20443;-70
2022/11/24 04:05:10;;;;;;;3.13;0.52;;;;;;;;;;4980784;28;20057;-69
2022/11/24 04:07:35;;;;;;;3.63;0.57;;;;;;;;;;4981141;28;20042;-72
2022/11/24 04:10:00;;;;;;;3.88;0.68;;;;;;;;;;4983936;28;20580;-70
2022/11/24 04:12:44;;;;;;;3.15;0.90;;;;;;;;;;4981453;28;20038;-70
2022/11/24 04:15:19;;;;;;;1.38;0.90;;;;;;;;;;4993464;28;20050;-68
2022/11/24 04:17:46;;;;;;;3.65;0.65;;;;;;;;;;4981881;28;20066;-68
2022/11/24 04:20:12;;;;;;;0.90;0.40;;;;;;;;;;4981273;28;20054;-68
2022/11/24 04:22:38;;;;;;;2.80;0.95;;;;;;;;;;4979460;28;20049;-68
2022/11/24 04:25:05;;;;;;;2.97;0.70;;;;;;;;;;4981222;28;20380;-68
2022/11/24 04:27:35;;;;;;;1.83;0.80;;;;;;;;;;4980651;28;20072;-68
2022/11/24 04:30:00;;;;;;;1.55;0.60;;;;;;;;;;4980929;28;20062;-69
2022/11/24 04:32:26;;;;;;;1.77;0.60;;;;;;;;;;4980998;28;20085;-68
2022/11/24 04:34:51;;;;;;;1.63;0.57;;;;;;;;;;4980531;28;20065;-68
2022/11/24 04:37:16;;;;;;;1.75;0.80;;;;;;;;;;4980634;28;20046;-67
2022/11/24 04:39:42;;;;;;;0.73;0.45;;;;;;;;;;4995473;28;20410;-69
2022/11/24 04:42:08;;;;;;;3.13;0.70;;;;;;;;;;4978654;28;20046;-69
2022/11/24 04:44:33;;;;;;;3.90;0.50;;;;;;;;;;4983082;28;20050;-69
2022/11/24 04:47:00;;;;;;;1.67;0.68;;;;;;;;;;4984764;28;20108;-69
2022/11/24 04:49:25;;;;;;;1.85;0.80;;;;;;;;;;4982944;28;20049;-69
2022/11/24 04:51:51;;;;;;;0.70;0.47;;;;;;;;;;4982848;28;20050;-70
2022/11/24 04:54:16;;;;;;;6.68;0.73;;;;;;;;;;4984626;28;20078;-70
2022/11/24 04:56:42;;;;;;;1.80;0.82;;;;;;;;;;4982994;28;20161;-70
2022/11/24 04:59:13;;;;;;;2.00;0.95;;;;;;;;;;4984427;28;20097;-70
2022/11/24 05:01:38;;;;;;;1.50;0.68;;;;;;;;;;4984044;28;20436;-70
2022/11/24 05:04:04;;;;;;;1.30;0.60;;;;;;;;;;4983364;28;20054;-71
2022/11/24 05:06:29;;;;;;;1.20;0.55;;;;;;;;;;4984226;28;20095;-70
2022/11/24 05:08:55;;;;;;;0.95;0.80;;;;;;;;;;4983596;28;20050;-70
2022/11/24 05:11:21;;;;;;;2.47;0.82;;;;;;;;;;4981466;28;20115;-71
2022/11/24 05:13:46;;;;;;;1.38;0.70;;;;;;;;;;4984044;28;20046;-71
2022/11/24 05:16:11;;;;;;;5.55;0.70;;;;;;;;;;4977381;28;20461;-70
2022/11/24 05:18:37;;;;;;;3.30;0.60;;;;;;;;;;4996716;28;20097;-71
2022/11/24 05:21:03;;;;;;;0.85;0.50;;;;;;;;;;4982472;28;20042;-70
2022/11/24 05:23:29;;;;;;;2.30;0.68;;;;;;;;;;4982175;28;20046;-70
2022/11/24 05:26:01;;;;;;;0.85;0.40;;;;;;;;;;4982013;28;20046;-70
2022/11/24 05:28:27;;;;;;;2.50;0.73;;;;;;;;;;4981487;28;20125;-70
2022/11/24 05:30:53;;;;;;;1.67;0.60;;;;;;;;;;4981325;28;20799;-71
2022/11/24 05:33:22;;;;;;;4.75;1.10;;;;;;;;;;4982492;28;20517;-70
2022/11/24 05:35:50;;;;;;;0.63;0.40;;;;;;;;;;4982688;28;21084;-70
2022/11/24 05:38:16;;;;;;;1.58;0.80;;;;;;;;;;4975015;28;20529;-69
2022/11/24 05:40:42;;;;;;;2.45;0.95;;;;;;;;;;4981181;28;20053;-70
2022/11/24 05:43:12;;;;;;;1.52;0.60;;;;;;;;;;4982645;28;20070;-70
2022/11/24 05:45:38;;;;;;;1.73;0.80;;;;;;;;;;4983119;28;20050;-70
2022/11/24 05:48:11;;;;;;;3.60;1.05;;;;;;;;;;4982595;28;20092;-70
2022/11/24 05:50:36;;;;;;;4.35;1.23;;;;;;;;;;4995559;28;20427;-70
2022/11/24 05:53:08;;;;;;;16.75;1.17;;;;;;;;;;4981600;28;20499;-70
2022/11/24 05:55:34;;;;;;;3.35;1.10;;;;;;;;;;4978923;28;20046;-69
2022/11/24 05:58:01;;;;;;;2.65;0.90;;;;;;;;;;4979094;28;20050;-70
2022/11/24 06:00:28;;;;;;;1.48;0.70;;;;;;;;;;4979541;28;20064;-70
2022/11/24 06:02:55;;;;;;;3.53;1.10;;;;;;;;;;4980773;28;20487;-70
2022/11/24 06:05:21;;;;;;;1.63;1.27;;;;;;;;;;4980871;28;20042;-70
2022/11/24 06:07:46;;;;;;;5.05;0.73;;;;;;;;;;4996270;28;20989;-71
2022/11/24 06:10:12;;;;;;;4.88;0.98;;;;;;;;;;4982034;28;20050;-70
2022/11/24 06:12:38;;;;;;;2.70;1.00;;;;;;;;;;4981585;28;20046;-71
2022/11/24 06:15:04;;;;;;;7.68;1.00;;;;;;;;;;4981387;28;20038;-70
2022/11/24 06:17:29;;;;;;;0.77;0.77;;;;;;;;;;4978721;28;20061;-70
2022/11/24 06:19:55;;;;;;;3.88;0.95;;;;;;;;;;4981918;28;20058;-70
2022/11/24 06:22:20;;;;;;;6.07;0.90;;;;;;;;;;4982568;28;20050;-70
2022/11/24 06:24:46;;;;;;;4.03;0.93;;;;;;;;;;4981036;28;20112;-70
2022/11/24 06:27:12;;;;;;;4.45;0.90;;;;;;;;;;4980278;28;20046;-70
2022/11/24 06:29:38;;;;;;;1.80;0.95;;;;;;;;;;4996250;28;20062;-71
2022/11/24 06:32:04;;;;;;;5.43;1.30;;;;;;;;;;4980851;28;20078;-71
2022/11/24 06:34:29;;;;;;;4.53;1.10;;;;;;;;;;4980727;28;20138;-72
2022/11/24 06:36:55;;;;;;;3.90;1.23;;;;;;;;;;4981144;28;21177;-71
2022/11/24 06:39:20;;;;;;;5.55;1.20;;;;;;;;;;4981707;28;20474;-72
2022/11/24 06:41:49;;;;;;;1.83;1.30;;;;;;;;;;4982990;28;20046;-71
2022/11/24 06:44:14;;;;;;;4.60;1.00;;;;;;;;;;4981930;28;20133;-71
2022/11/24 06:46:40;;;;;;;4.32;0.93;;;;;;;;;;4981528;28;20068;-71
2022/11/24 06:49:05;;;;;;;2.80;1.00;;;;;;;;;;4981947;28;20054;-70
2022/11/24 06:51:31;;;;;;;3.85;1.15;;;;;;;;;;4982179;28;20411;-71
2022/11/24 06:53:56;;;;;;;5.65;1.02;;;;;;;;;;4982702;28;20521;-71
2022/11/24 06:56:21;;;;;;;5.60;1.30;;;;;;;;;;4982680;28;20050;-71
2022/11/24 06:58:49;;;;;;;5.32;0.80;;;;;;;;;;4980868;28;20519;-71
2022/11/24 07:01:17;;;;;;;2.20;1.02;;;;;;;;;;4981674;28;20050;-71
2022/11/24 07:03:43;;;;;;;1.48;0.82;;;;;;;;;;4982523;28;20137;-71
2022/11/24 07:06:09;;;;;;;3.50;1.00;;;;;;;;;;4981589;28;20280;-71
2022/11/24 07:08:34;;;;;;;5.13;1.17;;;;;;;;;;4981107;28;20050;-71
2022/11/24 07:11:07;;;;;;;8.18;1.85;;;;;;;;;;4982426;28;20050;-72
2022/11/24 07:13:33;;;;;;;10.85;1.40;;;;;;;;;;4982030;28;20046;-72
2022/11/24 07:15:59;;;;;;;5.80;1.50;;;;;;;;;;4982239;28;20054;-72
2022/11/24 07:18:24;;;;;;;6.25;1.40;;;;;;;;;;4981191;28;20052;-71
2022/11/24 07:20:50;;;;;;;4.40;1.10;;;;;;;;;;4981207;28;20479;-71
2022/11/24 07:23:15;;;;;;;4.65;1.80;;;;;;;;;;4981086;28;20053;-71
2022/11/24 07:25:41;;;;;;;6.20;1.77;;;;;;;;;;4981950;28;20047;-71
2022/11/24 07:28:06;;;;;;;9.98;1.40;;;;;;;;;;4981644;28;20081;-70
2022/11/24 07:30:32;;;;;;;10.13;1.20;;;;;;;;;;4981943;28;20046;-71
2022/11/24 07:32:59;;;;;;;9.35;1.33;;;;;;;;;;4996416;28;20054;-70
2022/11/24 07:35:25;;;;;;;2.83;1.10;;;;;;;;;;4981111;28;20518;-70
2022/11/24 07:37:54;;;;;;;6.78;1.58;;;;;;;;;;4981479;28;20046;-70
2022/11/24 07:40:20;;;;;;;6.53;1.23;;;;;;;;;;4980185;28;20046;-71
2022/11/24 07:42:45;;;;;;;7.60;1.90;;;;;;;;;;4981056;28;20138;-70
2022/11/24 07:45:10;;;;;;;1.30;0.80;;;;;;;;;;4979778;28;20050;-70
2022/11/24 07:47:39;;;;;;;3.08;0.95;;;;;;;;;;4981181;28;20317;-70
2022/11/24 07:50:08;;;;;;;7.93;1.52;;;;;;;;;;4981630;28;20050;-70
2022/11/24 07:52:34;;;;;;;6.50;1.45;;;;;;;;;;4981034;28;20066;-71
2022/11/24 07:54:59;;;;;;;14.02;1.45;;;;;;;;;;4981356;28;20046;-71
2022/11/24 07:57:24;;;;;;;3.72;1.30;;;;;;;;;;4980457;28;20046;-70
2022/11/24 07:59:50;;;;;;;1.25;0.90;;;;;;;;;;4981309;28;20061;-70
2022/11/24 08:02:15;;;;;;;6.88;1.40;;;;;;;;;;4981207;28;20054;-69
2022/11/24 08:04:41;;;;;;;6.00;1.25;;;;;;;;;;4980695;28;20137;-70
2022/11/24 08:07:06;;;;;;;3.85;1.10;;;;;;;;;;4980532;28;20038;-69
2022/11/24 08:09:32;;;;;;;6.15;1.40;;;;;;;;;;4980964;28;20050;-70
2022/11/24 08:11:57;;;;;;;8.23;1.20;;;;;;;;;;4981180;28;20050;-70
2022/11/24 08:14:22;;;;;;;13.68;1.77;;;;;;;;;;4981536;28;20038;-69
2022/11/24 08:16:48;;;;;;;8.18;1.35;;;;;;;;;;4995120;28;21068;-69
2022/11/24 08:19:13;;;;;;;4.75;1.50;;;;;;;;;;4980060;28;20073;-69
2022/11/24 08:21:38;;;;;;;7.85;1.45;;;;;;;;;;4981326;28;20054;-70
2022/11/24 08:24:04;;;;;;;9.95;1.40;;;;;;;;;;4980922;28;20045;-70
2022/11/24 08:26:30;;;;;;;5.05;1.52;;;;;;;;;;4981593;28;20038;-70
2022/11/24 08:28:57;;;;;;;6.88;1.23;;;;;;;;;;4979777;28;20562;-70
2022/11/24 08:31:25;;;;;;;6.68;1.10;;;;;;;;;;4980738;28;20046;-70
2022/11/24 08:33:54;;;;;;;5.93;1.58;;;;;;;;;;4980914;28;20073;-70
2022/11/24 08:36:19;;;;;;;4.25;1.17;;;;;;;;;;4980899;28;20049;-70
2022/11/24 08:38:45;;;;;;;5.50;0.98;;;;;;;;;;4980141;28;20050;-70
2022/11/24 08:41:13;;;;;;;3.05;0.93;;;;;;;;;;4979967;28;20054;-69
2022/11/24 08:43:39;;;;;;;8.50;1.48;;;;;;;;;;4981032;28;20045;-70
2022/11/24 08:46:10;;;;;;;11.10;1.58;;;;;;;;;;4980621;28;20039;-70
2022/11/24 08:48:35;;;;;;;7.63;1.20;;;;;;;;;;4979728;28;20495;-70
2022/11/24 08:51:12;;;;;;;3.17;1.05;;;;;;;;;;4980027;28;20087;-70
2022/11/24 08:53:38;;;;;;;3.42;1.00;;;;;;;;;;4981452;28;20050;-69
2022/11/24 08:56:04;;;;;;;7.97;1.00;;;;;;;;;;4980586;28;20050;-70
2022/11/24 08:58:30;;;;;;;6.07;1.33;;;;;;;;;;4979390;28;20054;-70
2022/11/24 09:01:03;;;;;;;2.20;1.15;;;;;;;;;;4978228;28;20112;-70
2022/11/24 09:03:29;;;;;;;2.58;1.00;;;;;;;;;;4978531;28;20101;-69
2022/11/24 09:05:54;;;;;;;14.70;1.85;;;;;;;;;;4978836;28;20061;-69
2022/11/24 09:08:19;;;;;;;4.60;1.23;;;;;;;;;;4978498;28;20474;-69
2022/11/24 09:10:45;;;;;;;3.92;1.00;;;;;;;;;;4978218;28;20046;-71
2022/11/24 09:13:11;;;;;;;4.38;1.20;;;;;;;;;;4978590;28;20054;-70
2022/11/24 09:15:36;;;;;;;4.88;1.20;;;;;;;;;;4979164;28;20045;-71
2022/11/24 09:18:02;;;;;;;5.57;1.10;;;;;;;;;;4980301;28;20060;-70
2022/11/24 09:20:27;;;;;;;2.72;0.98;;;;;;;;;;4980716;28;20041;-70
2022/11/24 09:22:54;;;;;;;5.68;1.20;;;;;;;;;;4980472;28;20052;-69
2022/11/24 09:25:22;;;;;;;8.32;1.10;;;;;;;;;;4979630;28;20527;-69
2022/11/24 09:27:48;;;;;;;4.47;0.77;;;;;;;;;;4979967;28;20070;-68
2022/11/24 09:30:14;;;;;;;3.15;1.10;;;;;;;;;;4983407;28;20050;-69
2022/11/24 09:32:39;;;;;;;6.25;1.20;;;;;;;;;;4983163;28;20056;-70
2022/11/24 09:35:06;;;;;;;9.25;1.38;;;;;;;;;;4982980;28;20065;-70
2022/11/24 09:37:32;;;;;;;2.47;0.80;;;;;;;;;;4983549;28;20046;-70
2022/11/24 09:39:58;;;;;;;3.05;1.13;;;;;;;;;;4984094;28;20163;-70
2022/11/24 09:42:58;;;;;;;4.85;1.60;;;;;;;;;;4984235;28;20137;-70
2022/11/24 09:45:45;;;;;;;3.55;1.20;;;;;;;;;;4981091;28;20049;-70
2022/11/24 09:48:24;;;;;;;4.47;1.00;;;;;;;;;;4983217;28;20061;-71
2022/11/24 09:50:51;;;;;;;3.00;0.80;;;;;;;;;;4982466;28;20435;-70
2022/11/24 09:53:40;;;;;;;6.60;1.50;;;;;;;;;;4983662;28;20057;-68
2022/11/24 09:56:23;;;;;;;12.35;1.42;;;;;;;;;;4982607;28;20399;-72
2022/11/24 09:59:03;;;;;;;7.55;1.58;;;;;;;;;;4996427;28;20058;-71
2022/11/24 10:01:32;;;;;;;2.70;0.88;;;;;;;;;;4982335;28;20045;-70
2022/11/24 10:03:58;;;;;;;7.90;1.02;;;;;;;;;;4982903;28;20129;-70
2022/11/24 10:06:38;;;;;;;3.72;1.25;;;;;;;;;;4983340;28;20052;-70
2022/11/24 10:09:33;;;;;;;9.85;2.38;;;;;;;;;;4981952;28;20410;-69
2022/11/24 10:12:18;;;;;;;9.40;1.42;;;;;;;;;;4983458;28;20070;-69
2022/11/24 10:15:17;;;;;;;7.28;1.35;;;;;;;;;;4983019;28;20543;-71
2022/11/24 10:18:01;;;;;;;3.90;1.13;;;;;;;;;;4982526;28;20077;-70
2022/11/24 10:20:51;;;;;;;9.43;1.25;;;;;;;;;;4980863;28;20050;-70
2022/11/24 10:23:29;;;;;;;4.93;0.82;;;;;;;;;;4980782;28;20769;-70
2022/11/24 10:25:59;;;;;;;8.45;1.17;;;;;;;;;;4983306;28;20053;-70
2022/11/24 10:28:46;;;;;;;2.20;0.60;;;;;;;;;;4982712;28;20046;-69
2022/11/24 10:31:34;;;;;;;1.85;0.85;;;;;;;;;;4979144;28;20046;-70
2022/11/24 10:34:09;;;;;;;5.15;1.10;;;;;;;;;;4983116;28;20041;-69
2022/11/24 10:36:52;;;;;;;3.67;0.93;;;;;;;;;;4982450;28;20038;-70
2022/11/24 10:39:41;;;;;;;3.28;0.95;;;;;;;;;;4982400;28;20054;-69
2022/11/24 10:42:18;;;;;;;4.00;1.00;;;;;;;;;;4953783;28;20065;-69
2022/11/24 10:44:44;;;;;;;3.83;0.70;;;;;;;;;;4982371;28;20050;-69
2022/11/24 10:47:21;;;;;;;5.20;1.38;;;;;;;;;;4982695;28;20096;-70
2022/11/24 10:49:57;;;;;;;3.47;1.00;;;;;;;;;;4982802;28;20569;-68
2022/11/24 10:52:24;;;;;;;4.70;1.40;;;;;;;;;;4981900;28;20069;-69
2022/11/24 10:54:57;;;;;;;3.55;1.15;;;;;;;;;;4981760;28;20053;-70
2022/11/24 10:57:30;;;;;;;4.40;0.90;;;;;;;;;;4982103;28;20065;-69
2022/11/24 10:59:56;;;;;;;3.17;0.80;;;;;;;;;;4982625;28;20058;-70
2022/11/24 11:02:32;;;;;;;2.42;0.50;;;;;;;;;;4981486;28;20083;-70
2022/11/24 11:05:18;;;;;;;8.75;1.35;;;;;;;;;;4981861;28;20115;-69
2022/11/24 11:07:43;;;;;;;1.15;0.63;;;;;;;;;;4981692;28;20053;-68
2022/11/24 11:10:22;;;;;;;5.40;0.73;;;;;;;;;;4980873;28;20844;-69
2022/11/24 11:12:48;;;;;;;2.38;0.65;;;;;;;;;;4981752;28;20035;-68
2022/11/24 11:15:29;;;;;;;1.05;0.73;;;;;;;;;;4981267;28;20517;-70
2022/11/24 11:17:58;;;;;;;3.20;1.13;;;;;;;;;;4981724;28;20050;-68
2022/11/24 11:20:30;;;;;;;4.07;0.80;;;;;;;;;;4980886;28;20057;-68
2022/11/24 11:22:58;;;;;;;1.85;0.60;;;;;;;;;;4981643;28;20054;-69
2022/11/24 11:25:34;;;;;;;2.75;0.55;;;;;;;;;;4981150;28;20510;-69
2022/11/24 11:28:10;;;;;;;1.58;0.60;;;;;;;;;;4981752;28;20050;-70
2022/11/24 11:30:35;;;;;;;6.20;0.70;;;;;;;;;;4981697;28;20042;-68
2022/11/24 11:33:01;;;;;;;2.25;0.40;;;;;;;;;;4981716;28;20104;-69
2022/11/24 11:35:31;;;;;;;6.07;0.77;;;;;;;;;;4980681;28;20054;-69
2022/11/24 11:38:00;;;;;;;1.83;0.50;;;;;;;;;;4981320;28;20050;-69
2022/11/24 11:40:30;;;;;;;1.98;0.40;;;;;;;;;;4981535;28;20627;-70
2022/11/24 11:43:18;;;;;;;0.68;0.50;;;;;;;;;;4981177;28;20133;-69
2022/11/24 11:46:02;;;;;;;2.00;0.57;;;;;;;;;;4980642;28;20985;-69
2022/11/24 11:48:33;;;;;;;2.17;0.63;;;;;;;;;;4980110;28;20030;-69
2022/11/24 11:51:12;;;;;;;2.17;0.60;;;;;;;;;;4980742;28;20062;-71
2022/11/24 11:53:55;;;;;;;2.83;0.75;;;;;;;;;;4980235;28;20042;-70
2022/11/24 11:56:35;;;;;;;0.82;0.60;;;;;;;;;;4979877;28;20054;-69
2022/11/24 11:59:28;;;;;;;3.50;0.57;;;;;;;;;;4978204;28;20105;-69
2022/11/24 12:01:59;;;;;;;4.53;0.90;;;;;;;;;;4994634;28;20042;-70
2022/11/24 12:04:51;;;;;;;1.52;0.47;;;;;;;;;;4995667;28;20050;-69
2022/11/24 12:07:26;;;;;;;5.45;0.80;;;;;;;;;;4977309;28;20069;-71
2022/11/24 12:10:16;;;;;;;1.30;0.60;;;;;;;;;;4978995;28;20060;-69
2022/11/24 12:12:54;;;;;;;1.90;0.90;;;;;;;;;;4979969;28;20129;-69
2022/11/24 12:15:50;;;;;;;5.38;0.95;;;;;;;;;;4979443;28;20057;-69
2022/11/24 12:18:28;;;;;;;2.60;1.08;;;;;;;;;;4979316;28;20050;-71
2022/11/24 12:21:25;;;;;;;3.25;0.93;;;;;;;;;;4978638;28;20054;-69
2022/11/24 12:24:20;;;;;;;6.07;1.00;;;;;;;;;;4977307;28;20495;-70
2022/11/24 12:27:12;;;;;;;3.03;0.95;;;;;;;;;;4978111;28;20054;-70
2022/11/24 12:30:03;;;;;;;1.60;0.90;;;;;;;;;;4980025;28;20060;-69
2022/11/24 12:32:50;;;;;;;0.68;0.43;;;;;;;;;;4971101;28;20221;-69
2022/11/24 12:35:26;;;;;;;0.90;0.77;;;;;;;;;;4977677;28;20046;-69
2022/11/24 12:38:18;;;;;;;3.33;0.93;;;;;;;;;;4979480;28;20081;-69
2022/11/24 12:41:11;;;;;;;1.75;0.52;;;;;;;;;;4945541;28;20426;-70
2022/11/24 12:43:52;;;;;;;2.83;0.73;;;;;;;;;;4992614;28;20053;-70
2022/11/24 12:46:35;;;;;;;5.82;1.48;;;;;;;;;;4978980;28;20764;-70
2022/11/24 12:49:35;;;;;;;0.80;0.55;;;;;;;;;;4978242;28;20070;-70
2022/11/24 12:52:08;;;;;;;0.75;0.45;;;;;;;;;;4979097;28;20039;-69
2022/11/24 12:54:38;;;;;;;4.28;0.50;;;;;;;;;;4978305;28;20094;-70
2022/11/24 12:57:15;;;;;;;2.05;0.65;;;;;;;;;;4977891;28;20426;-70
2022/11/24 12:59:49;;;;;;;1.48;0.45;;;;;;;;;;4977796;28;20080;-69
2022/11/24 13:02:53;;;;;;;1.05;0.45;;;;;;;;;;4979319;28;20046;-69
2022/11/24 13:05:35;;;;;;;2.47;0.70;;;;;;;;;;4979644;28;20054;-69
2022/11/24 13:08:05;;;;;;;1.30;0.70;;;;;;;;;;4980750;28;20042;-69
2022/11/24 13:10:36;;;;;;;1.20;0.60;;;;;;;;;;4981171;28;20487;-69
2022/11/24 13:13:03;;;;;;;0.85;0.40;;;;;;;;;;4982140;28;20050;-69
2022/11/24 13:15:30;;;;;;;1.83;0.60;;;;;;;;;;4973234;28;20479;-70
2022/11/24 13:17:57;;;;;;;1.90;0.82;;;;;;;;;;4974626;28;20050;-69
2022/11/24 13:20:29;;;;;;;2.05;0.50;;;;;;;;;;4977874;28;20925;-71
2022/11/24 13:22:58;;;;;;;3.10;0.80;;;;;;;;;;4977265;28;20120;-69
2022/11/24 13:25:29;;;;;;;0.68;0.50;;;;;;;;;;4977452;28;20051;-70
2022/11/24 13:27:59;;;;;;;1.20;0.80;;;;;;;;;;4976300;28;20050;-69
2022/11/24 13:30:34;;;;;;;2.58;0.70;;;;;;;;;;4978788;28;20109;-70
2022/11/24 13:33:01;;;;;;;2.72;0.70;;;;;;;;;;4978825;28;20087;-69
2022/11/24 13:35:27;;;;;;;1.10;0.68;;;;;;;;;;4981711;28;20097;-69
2022/11/24 13:37:52;;;;;;;1.25;0.70;;;;;;;;;;4979539;28;20699;-69
2022/11/24 13:40:21;;;;;;;3.92;1.55;;;;;;;;;;4981953;28;20046;-69
2022/11/24 13:43:02;;;;;;;5.63;0.80;;;;;;;;;;4980475;28;20054;-73
2022/11/24 13:45:40;;;;;;;1.33;0.70;;;;;;;;;;4981000;28;20495;-70
2022/11/24 13:48:17;;;;;;;2.88;1.08;;;;;;;;;;4980081;28;20047;-70
2022/11/24 13:50:49;;;;;;;2.10;0.70;;;;;;;;;;4980452;28;20286;-72
2022/11/24 13:53:33;;;;;;;3.72;0.90;;;;;;;;;;4980396;28;20061;-69
2022/11/24 13:56:01;;;;;;;4.38;0.77;;;;;;;;;;4982221;28;20419;-69
2022/11/24 13:58:43;;;;;;;0.73;0.70;;;;;;;;;;4979685;28;20058;-69
2022/11/24 14:01:25;;;;;;;2.78;0.82;;;;;;;;;;4978726;28;20051;-70
2022/11/24 14:04:16;;;;;;;7.35;0.90;;;;;;;;;;4979201;28;20053;-70
2022/11/24 14:06:55;;;;;;;4.18;0.65;;;;;;;;;;4980100;28;20053;-70
2022/11/24 14:09:35;;;;;;;3.35;0.90;;;;;;;;;;4979410;28;20053;-69
2022/11/24 14:12:06;;;;;;;0.60;0.60;;;;;;;;;;4981814;28;20086;-69
2022/11/24 14:14:32;;;;;;;2.88;0.85;;;;;;;;;;4980160;28;20050;-70
2022/11/24 14:17:27;;;;;;;1.77;0.65;;;;;;;;;;4980958;28;20050;-69
2022/11/24 14:19:54;;;;;;;1.10;0.88;;;;;;;;;;4979016;28;20057;-69
2022/11/24 14:22:30;;;;;;;1.52;0.95;;;;;;;;;;4979623;28;20522;-70
2022/11/24 14:25:00;;;;;;;1.38;0.85;;;;;;;;;;4979301;28;20057;-69
2022/11/24 14:27:44;;;;;;;7.18;0.88;;;;;;;;;;4980359;28;20046;-69
2022/11/24 14:30:12;;;;;;;2.88;1.02;;;;;;;;;;4980145;28;20046;-71
2022/11/24 14:32:38;;;;;;;2.20;0.85;;;;;;;;;;4980453;28;20495;-70
2022/11/24 14:35:27;;;;;;;1.20;1.10;;;;;;;;;;4981751;28;20054;-69
2022/11/24 14:37:53;;;;;;;1.90;1.00;;;;;;;;;;4979547;28;20061;-70
2022/11/24 14:40:40;;;;;;;4.97;1.15;;;;;;;;;;4978284;28;20058;-70
2022/11/24 14:43:18;;;;;;;5.80;1.38;;;;;;;;;;4977375;28;20050;-70
2022/11/24 14:45:54;;;;;;;2.58;1.10;;;;;;;;;;4977293;28;20050;-70
2022/11/24 14:48:27;;;;;;;5.05;1.17;;;;;;;;;;4980846;28;20041;-68
2022/11/24 14:51:04;;;;;;;2.60;1.15;;;;;;;;;;4981293;28;20065;-69
2022/11/24 14:53:30;;;;;;;4.22;1.25;;;;;;;;;;4981036;28;20050;-70
2022/11/24 14:56:22;;;;;;;3.08;1.25;;;;;;;;;;4982169;28;20415;-69
2022/11/24 14:58:48;;;;;;;1.98;1.00;;;;;;;;;;4980910;28;20104;-69
2022/11/24 15:01:25;;;;;;;3.13;1.02;;;;;;;;;;4981524;28;20034;-70
2022/11/24 15:04:10;;;;;;;3.10;1.20;;;;;;;;;;4981408;28;20108;-69